Time;durP1;ratioP1;P1;durP2;ratioP2;P2;SDS_P1;SDS_P2;PMS_P1;PMS_P2;Temp;Humidity;BMP_temperature;BMP_pressure;BME280_temperature;BME280_humidity;BME280_pressure;Samples;Min_cycle;Max_cycle;Signal;HPM_P1;HPM_P2
2022/04/20 00:00:40;;;;;;;1.55;0.90;;;20.80;40.30;;;;;;5055262;28;20888;-62
2022/04/20 00:03:06;;;;;;;1.23;1.10;;;20.70;40.20;;;;;;5052353;28;20127;-63
2022/04/20 00:05:33;;;;;;;1.10;1.00;;;20.70;40.20;;;;;;5051030;28;20124;-62
2022/04/20 00:07:59;;;;;;;1.15;0.90;;;20.80;40.20;;;;;;5055083;28;20040;-63
2022/04/20 00:10:25;;;;;;;1.42;1.10;;;20.70;40.10;;;;;;5054825;28;20714;-62
2022/04/20 00:12:51;;;;;;;1.33;1.10;;;20.70;40.10;;;;;;5056642;28;20360;-62
2022/04/20 00:15:16;;;;;;;1.42;1.00;;;20.70;40.00;;;;;;5055829;28;20052;-62
2022/04/20 00:17:42;;;;;;;0.80;0.80;;;20.70;40.10;;;;;;5055251;28;20040;-63
2022/04/20 00:20:08;;;;;;;1.38;1.02;;;20.70;40.10;;;;;;5054116;28;20041;-62
2022/04/20 00:22:34;;;;;;;1.75;1.08;;;20.70;39.90;;;;;;5053544;28;20028;-63
2022/04/20 00:24:59;;;;;;;1.27;1.17;;;20.70;40.60;;;;;;5055667;28;20527;-62
2022/04/20 00:27:25;;;;;;;2.83;1.25;;;20.70;39.80;;;;;;5053671;28;20492;-62
2022/04/20 00:29:50;;;;;;;0.90;0.90;;;20.70;39.80;;;;;;5056210;28;20075;-62
2022/04/20 00:32:16;;;;;;;1.23;1.10;;;20.70;39.80;;;;;;5055238;28;20393;-63
2022/04/20 00:34:41;;;;;;;1.42;1.27;;;20.70;39.80;;;;;;5054585;28;20041;-63
2022/04/20 00:37:07;;;;;;;1.70;1.08;;;20.70;39.80;;;;;;5054624;28;20067;-61
2022/04/20 00:39:33;;;;;;;1.25;1.15;;;20.70;39.70;;;;;;5054454;28;20120;-63
2022/04/20 00:41:58;;;;;;;1.08;0.98;;;20.70;39.80;;;;;;5070638;28;20147;-63
2022/04/20 00:44:25;;;;;;;1.08;0.98;;;20.70;39.70;;;;;;5054601;28;20033;-63
2022/04/20 00:46:52;;;;;;;1.35;1.17;;;20.70;39.70;;;;;;5054091;28;20156;-63
2022/04/20 00:49:18;;;;;;;1.33;1.23;;;20.70;39.70;;;;;;5057317;28;20041;-62
2022/04/20 00:51:56;;;;;;;1.30;1.10;;;20.70;39.60;;;;;;5053732;28;20528;-63
2022/04/20 00:54:21;;;;;;;1.45;1.00;;;20.70;39.50;;;;;;5053146;28;20057;-62
2022/04/20 00:56:47;;;;;;;1.02;0.80;;;20.60;39.50;;;;;;5054168;28;20033;-63
2022/04/20 00:59:14;;;;;;;1.60;0.93;;;20.60;39.50;;;;;;5055892;28;20075;-62
2022/04/20 01:01:40;;;;;;;0.95;0.82;;;20.70;39.60;;;;;;5053705;28;20048;-63
2022/04/20 01:04:06;;;;;;;1.25;1.15;;;20.60;39.50;;;;;;5055078;28;20040;-62
2022/04/20 01:06:31;;;;;;;1.48;1.10;;;20.60;39.50;;;;;;5054734;28;20031;-62
2022/04/20 01:08:57;;;;;;;1.20;1.10;;;20.60;39.60;;;;;;5054752;28;20043;-63
2022/04/20 01:11:23;;;;;;;1.25;1.10;;;20.70;39.80;;;;;;5051947;28;20041;-62
2022/04/20 01:13:48;;;;;;;1.42;1.08;;;20.60;39.70;;;;;;5057913;28;20041;-62
2022/04/20 01:16:14;;;;;;;1.02;0.98;;;20.60;39.70;;;;;;5054307;28;20044;-63
2022/04/20 01:18:43;;;;;;;1.00;1.00;;;20.60;39.80;;;;;;5054679;28;20086;-61
2022/04/20 01:21:12;;;;;;;1.55;0.98;;;20.70;39.90;;;;;;5053823;28;20040;-62
2022/04/20 01:23:38;;;;;;;1.73;1.25;;;20.70;39.90;;;;;;5053064;28;20085;-63
2022/04/20 01:26:08;;;;;;;1.17;1.08;;;20.70;39.90;;;;;;5052632;28;20158;-62
2022/04/20 01:28:35;;;;;;;1.45;1.10;;;20.60;39.90;;;;;;5053219;28;20032;-63
2022/04/20 01:31:01;;;;;;;1.23;1.02;;;20.70;40.00;;;;;;5053330;28;20496;-63
2022/04/20 01:33:26;;;;;;;1.55;1.15;;;20.60;39.90;;;;;;5053372;28;20505;-62
2022/04/20 01:35:52;;;;;;;1.23;1.13;;;20.60;39.90;;;;;;5055474;28;20032;-62
2022/04/20 01:38:18;;;;;;;1.15;1.08;;;20.60;39.90;;;;;;5053766;28;20068;-62
2022/04/20 01:40:43;;;;;;;1.38;1.00;;;20.60;39.90;;;;;;5051500;28;20377;-62
2022/04/20 01:43:09;;;;;;;1.00;0.93;;;20.60;39.90;;;;;;5053526;28;20046;-62
2022/04/20 01:45:34;;;;;;;1.70;0.93;;;20.60;39.90;;;;;;5055773;28;20041;-62
2022/04/20 01:48:00;;;;;;;1.10;1.00;;;20.60;39.90;;;;;;5053918;28;20044;-63
2022/04/20 01:50:25;;;;;;;1.60;1.23;;;20.60;39.90;;;;;;5052740;28;20460;-62
2022/04/20 01:52:51;;;;;;;1.30;0.90;;;20.60;40.10;;;;;;5052105;28;20522;-63
2022/04/20 01:55:17;;;;;;;1.38;1.10;;;20.60;39.90;;;;;;5053713;28;20040;-62
2022/04/20 01:57:43;;;;;;;1.98;1.00;;;20.60;39.90;;;;;;5052612;28;20037;-63
2022/04/20 02:00:10;;;;;;;1.40;0.90;;;20.60;39.80;;;;;;5051128;28;20063;-64
2022/04/20 02:02:37;;;;;;;0.82;0.82;;;20.60;39.90;;;;;;5047904;28;20099;-63
2022/04/20 02:05:12;;;;;;;1.20;1.10;;;20.60;39.90;;;;;;5051584;28;20529;-64
2022/04/20 02:07:38;;;;;;;1.55;1.05;;;20.60;39.80;;;;;;5053350;28;20136;-63
2022/04/20 02:10:05;;;;;;;1.65;0.93;;;20.60;39.90;;;;;;5056574;28;20527;-62
2022/04/20 02:12:31;;;;;;;1.08;0.98;;;20.50;39.80;;;;;;5055897;28;20036;-62
2022/04/20 02:14:57;;;;;;;1.15;0.98;;;20.60;39.90;;;;;;5052845;28;20052;-63
2022/04/20 02:17:23;;;;;;;0.90;0.70;;;20.50;39.80;;;;;;5053085;28;20974;-62
2022/04/20 02:19:49;;;;;;;1.15;1.05;;;20.50;39.80;;;;;;5048991;28;20045;-62
2022/04/20 02:22:14;;;;;;;1.20;1.10;;;20.50;39.80;;;;;;5052607;28;20037;-63
2022/04/20 02:24:40;;;;;;;1.38;1.10;;;20.50;39.70;;;;;;5051858;28;20040;-62
2022/04/20 02:27:08;;;;;;;1.35;1.20;;;20.50;39.70;;;;;;5054498;28;20045;-63
2022/04/20 02:29:34;;;;;;;1.58;1.13;;;20.50;39.70;;;;;;5053275;28;20072;-63
2022/04/20 02:31:59;;;;;;;1.23;1.13;;;20.50;39.60;;;;;;5051651;28;20130;-62
2022/04/20 02:34:25;;;;;;;1.92;1.00;;;20.50;39.70;;;;;;5052980;28;20413;-62
2022/04/20 02:36:51;;;;;;;1.10;0.98;;;20.50;39.70;;;;;;5053369;28;20044;-64
2022/04/20 02:39:18;;;;;;;1.67;1.00;;;20.50;39.60;;;;;;5050666;28;20045;-63
2022/04/20 02:41:43;;;;;;;1.40;1.13;;;20.50;39.60;;;;;;5055601;28;20119;-62
2022/04/20 02:44:09;;;;;;;1.23;1.13;;;20.50;39.80;;;;;;5055401;28;20468;-64
2022/04/20 02:46:35;;;;;;;1.02;1.00;;;20.50;39.60;;;;;;5057222;28;20047;-62
2022/04/20 02:49:01;;;;;;;1.83;1.13;;;20.50;39.60;;;;;;5055467;28;20130;-61
2022/04/20 02:51:26;;;;;;;1.10;1.00;;;20.50;39.60;;;;;;5054758;28;20045;-61
2022/04/20 02:53:52;;;;;;;1.30;1.10;;;20.50;39.60;;;;;;5058916;28;20032;-61
2022/04/20 02:56:18;;;;;;;1.50;1.20;;;20.50;39.60;;;;;;5055501;28;20103;-64
2022/04/20 02:58:43;;;;;;;1.55;0.93;;;20.50;39.60;;;;;;5056168;28;20041;-62
2022/04/20 03:01:09;;;;;;;1.08;1.00;;;20.50;39.50;;;;;;5070174;28;20048;-63
2022/04/20 03:03:34;;;;;;;1.90;1.05;;;20.50;39.50;;;;;;5056900;28;20032;-63
2022/04/20 03:06:00;;;;;;;1.70;1.20;;;20.50;39.50;;;;;;5055779;28;20110;-61
2022/04/20 03:08:26;;;;;;;1.58;1.05;;;20.50;39.40;;;;;;5054355;28;20423;-62
2022/04/20 03:10:52;;;;;;;1.27;1.17;;;20.50;40.20;;;;;;5055651;28;20045;-62
2022/04/20 03:13:18;;;;;;;2.55;1.23;;;20.40;39.30;;;;;;5054540;28;20503;-64
2022/04/20 03:15:45;;;;;;;1.08;1.00;;;20.50;39.40;;;;;;5056134;28;20028;-62
2022/04/20 03:18:10;;;;;;;2.47;0.93;;;20.40;39.30;;;;;;5057298;28;20079;-61
2022/04/20 03:20:36;;;;;;;1.40;0.90;;;20.40;39.30;;;;;;5056052;28;20123;-62
2022/04/20 03:23:02;;;;;;;1.88;1.10;;;20.40;39.30;;;;;;5056880;28;20044;-63
2022/04/20 03:25:28;;;;;;;1.23;1.10;;;20.40;39.20;;;;;;5056172;28;20087;-62
2022/04/20 03:27:54;;;;;;;2.30;1.10;;;20.40;39.30;;;;;;5055836;28;20033;-63
2022/04/20 03:30:20;;;;;;;0.98;0.98;;;20.40;39.30;;;;;;5053813;28;20056;-62
2022/04/20 03:32:46;;;;;;;1.10;1.00;;;20.40;39.20;;;;;;5058006;28;20040;-62
2022/04/20 03:35:11;;;;;;;1.55;1.15;;;20.40;39.20;;;;;;5057978;28;20037;-63
2022/04/20 03:37:37;;;;;;;1.20;1.10;;;20.40;39.20;;;;;;5056980;28;20029;-62
2022/04/20 03:40:06;;;;;;;1.30;1.20;;;20.40;39.10;;;;;;5057199;28;20049;-64
2022/04/20 03:42:32;;;;;;;1.27;1.15;;;20.40;39.10;;;;;;5055194;28;20052;-63
2022/04/20 03:44:57;;;;;;;1.30;1.20;;;20.40;39.20;;;;;;5053340;28;20045;-62
2022/04/20 03:47:23;;;;;;;1.70;1.30;;;20.40;39.10;;;;;;5055690;28;20480;-64
2022/04/20 03:49:48;;;;;;;1.73;1.27;;;20.40;39.90;;;;;;5055120;28;20040;-62
2022/04/20 03:52:14;;;;;;;1.10;1.00;;;20.40;39.10;;;;;;5053309;28;20472;-62
2022/04/20 03:54:39;;;;;;;2.53;1.10;;;20.40;39.10;;;;;;5051475;28;20045;-62
2022/04/20 03:57:07;;;;;;;1.60;1.50;;;20.40;39.10;;;;;;5054800;28;20044;-64
2022/04/20 03:59:35;;;;;;;1.77;1.23;;;20.40;39.10;;;;;;5054652;28;20047;-62
2022/04/20 04:02:02;;;;;;;1.48;1.20;;;20.40;39.10;;;;;;5051445;28;20320;-64
2022/04/20 04:04:27;;;;;;;1.05;1.05;;;20.40;39.00;;;;;;5053946;28;20050;-62
2022/04/20 04:06:53;;;;;;;1.70;1.20;;;20.40;39.10;;;;;;5055033;28;20366;-63
2022/04/20 04:09:19;;;;;;;1.25;1.00;;;20.40;39.00;;;;;;5054381;28;20067;-62
2022/04/20 04:11:45;;;;;;;1.70;1.38;;;20.40;39.00;;;;;;5054253;28;20215;-62
2022/04/20 04:14:10;;;;;;;1.23;1.02;;;20.30;38.90;;;;;;5055384;28;20045;-62
2022/04/20 04:16:39;;;;;;;1.67;1.05;;;20.30;38.90;;;;;;5056842;28;20589;-63
2022/04/20 04:19:06;;;;;;;1.15;1.05;;;20.30;38.90;;;;;;5054054;28;20072;-62
2022/04/20 04:21:35;;;;;;;1.48;1.23;;;20.30;39.00;;;;;;5050367;28;20040;-61
2022/04/20 04:24:00;;;;;;;1.23;1.00;;;20.30;38.90;;;;;;5055200;28;20059;-61
2022/04/20 04:26:28;;;;;;;2.40;1.08;;;20.30;38.90;;;;;;5051238;28;20484;-64
2022/04/20 04:28:53;;;;;;;1.70;1.20;;;20.40;39.00;;;;;;5055653;28;20041;-64
2022/04/20 04:31:19;;;;;;;1.58;0.93;;;20.30;39.00;;;;;;5054465;28;20055;-64
2022/04/20 04:33:44;;;;;;;1.40;1.02;;;20.30;38.90;;;;;;5055232;28;20049;-62
2022/04/20 04:36:10;;;;;;;4.22;1.30;;;20.30;38.90;;;;;;5056617;28;20033;-62
2022/04/20 04:38:36;;;;;;;2.65;1.30;;;20.30;39.00;;;;;;5055909;28;20072;-62
2022/04/20 04:41:01;;;;;;;1.20;1.10;;;20.30;39.00;;;;;;5054973;28;20046;-65
2022/04/20 04:43:27;;;;;;;2.80;1.25;;;20.30;39.00;;;;;;5053434;28;20040;-63
2022/04/20 04:48:37;;;;;;;3.25;1.50;;;20.30;39.10;;;;;;5054326;28;20060;-63
2022/04/20 04:51:07;;;;;;;3.35;1.65;;;20.30;39.40;;;;;;5052874;28;20709;-62
2022/04/20 04:53:32;;;;;;;1.20;1.10;;;20.30;39.50;;;;;;5051983;28;20040;-62
2022/04/20 04:55:58;;;;;;;7.80;1.55;;;20.30;39.40;;;;;;5053004;28;20517;-62
2022/04/20 04:58:24;;;;;;;4.22;1.40;;;20.30;39.50;;;;;;5054057;28;20111;-62
2022/04/20 05:00:49;;;;;;;2.65;1.40;;;20.20;39.30;;;;;;5056070;28;20758;-62
2022/04/20 05:03:16;;;;;;;2.88;1.55;;;20.30;39.40;;;;;;5052040;28;20048;-62
2022/04/20 05:05:45;;;;;;;1.92;1.40;;;20.30;39.50;;;;;;5054326;28;20051;-63
2022/04/20 05:08:11;;;;;;;2.90;1.30;;;20.30;39.50;;;;;;5053993;28;20492;-62
2022/04/20 05:10:36;;;;;;;3.08;1.52;;;20.30;39.40;;;;;;5054896;28;20044;-62
2022/04/20 05:13:03;;;;;;;1.77;1.60;;;20.30;39.30;;;;;;5053909;28;20040;-62
2022/04/20 05:15:29;;;;;;;2.58;1.40;;;20.30;39.40;;;;;;5052883;28;20044;-63
2022/04/20 05:17:54;;;;;;;3.95;1.70;;;20.30;39.30;;;;;;5052328;28;20937;-62
2022/04/20 05:20:21;;;;;;;2.88;1.50;;;20.30;39.40;;;;;;5052671;28;20061;-62
2022/04/20 05:22:47;;;;;;;2.08;1.80;;;20.30;39.40;;;;;;5052633;28;20060;-62
2022/04/20 05:25:13;;;;;;;1.55;1.33;;;20.30;39.50;;;;;;5053801;28;20278;-62
2022/04/20 05:27:38;;;;;;;2.83;1.60;;;20.30;39.40;;;;;;5050690;28;20078;-63
2022/04/20 05:30:06;;;;;;;2.28;1.55;;;20.30;39.40;;;;;;5054559;28;20128;-62
2022/04/20 05:32:32;;;;;;;1.92;1.50;;;20.30;39.40;;;;;;5053958;28;20049;-62
2022/04/20 05:34:57;;;;;;;2.50;1.45;;;20.30;39.30;;;;;;5053907;28;20424;-62
2022/04/20 05:42:53;;;;;;;1.92;1.67;;;20.30;39.30;;;;;;5055775;28;20056;-62
2022/04/20 05:45:19;;;;;;;2.80;1.42;;;20.30;39.40;;;;;;5054313;28;20484;-62
2022/04/20 05:47:45;;;;;;;1.55;1.45;;;20.30;39.40;;;;;;5054287;28;20482;-62
2022/04/20 05:50:11;;;;;;;2.22;1.23;;;20.30;39.50;;;;;;5054618;28;20371;-62
2022/04/20 05:52:37;;;;;;;3.55;1.52;;;20.40;39.50;;;;;;5056320;28;20479;-62
2022/04/20 05:55:03;;;;;;;3.08;1.52;;;20.40;39.50;;;;;;5053303;28;20041;-62
2022/04/20 05:57:29;;;;;;;1.60;1.50;;;20.40;39.40;;;;;;5054938;28;20791;-62
2022/04/20 05:59:54;;;;;;;2.42;1.48;;;20.40;39.20;;;;;;5054418;28;20033;-63
2022/04/20 06:02:20;;;;;;;3.83;1.40;;;20.40;39.50;;;;;;5052694;28;20037;-62
2022/04/20 06:04:45;;;;;;;1.90;1.40;;;20.30;39.40;;;;;;5055833;28;20043;-62
2022/04/20 06:07:11;;;;;;;2.90;1.48;;;20.40;39.40;;;;;;5054072;28;20040;-63
2022/04/20 06:09:36;;;;;;;2.20;1.15;;;20.40;39.50;;;;;;5052511;28;20049;-62
2022/04/20 06:12:02;;;;;;;4.13;1.55;;;20.40;39.60;;;;;;5053414;28;20041;-62
2022/04/20 06:14:28;;;;;;;2.20;1.40;;;20.40;39.60;;;;;;5056469;28;20395;-63
2022/04/20 06:16:54;;;;;;;2.15;1.42;;;20.40;39.50;;;;;;5052182;28;20063;-62
2022/04/20 06:19:19;;;;;;;1.83;1.30;;;20.40;39.60;;;;;;5058101;28;20162;-63
2022/04/20 06:21:45;;;;;;;1.55;1.45;;;20.40;39.70;;;;;;5055848;28;20076;-62
2022/04/20 06:24:10;;;;;;;2.72;1.40;;;20.40;39.70;;;;;;5056045;28;20064;-63
2022/04/20 06:26:36;;;;;;;2.92;1.20;;;20.40;39.60;;;;;;5053889;28;20047;-62
2022/04/20 06:29:01;;;;;;;1.55;1.20;;;20.40;39.60;;;;;;5054467;28;20124;-62
2022/04/20 06:31:27;;;;;;;1.58;1.20;;;20.40;39.60;;;;;;5055599;28;20055;-62
2022/04/20 06:33:57;;;;;;;2.05;1.30;;;20.40;39.60;;;;;;5055156;28;20037;-63
2022/04/20 06:36:24;;;;;;;1.95;1.58;;;20.40;39.60;;;;;;5054816;28;20094;-63
2022/04/20 06:38:49;;;;;;;3.90;1.23;;;20.40;39.40;;;;;;5055551;28;20043;-63
2022/04/20 06:41:15;;;;;;;2.45;1.20;;;20.40;39.70;;;;;;5053489;28;20048;-63
2022/04/20 06:43:41;;;;;;;2.88;1.10;;;20.40;39.70;;;;;;5051695;28;20135;-62
2022/04/20 06:46:06;;;;;;;1.50;1.10;;;20.40;39.80;;;;;;5053979;28;20074;-64
2022/04/20 06:48:32;;;;;;;1.85;1.40;;;20.40;39.80;;;;;;5058051;28;20131;-62
2022/04/20 06:50:57;;;;;;;1.88;1.45;;;20.40;39.70;;;;;;5056912;28;20366;-63
2022/04/20 06:58:52;;;;;;;1.80;1.30;;;20.40;39.80;;;;;;5055933;28;20603;-64
2022/04/20 07:01:17;;;;;;;2.50;1.33;;;20.40;39.80;;;;;;5057672;28;20041;-64
2022/04/20 07:03:43;;;;;;;1.42;1.10;;;20.40;39.90;;;;;;5057800;28;20119;-62
2022/04/20 07:06:09;;;;;;;1.77;1.13;;;20.40;40.00;;;;;;5056493;28;20079;-62
2022/04/20 07:08:34;;;;;;;3.50;1.50;;;20.50;40.10;;;;;;5056505;28;20043;-61
2022/04/20 07:11:00;;;;;;;3.95;1.55;;;20.50;40.10;;;;;;5057749;28;20578;-63
2022/04/20 07:13:26;;;;;;;1.20;1.10;;;20.50;40.30;;;;;;5056459;28;20033;-61
2022/04/20 07:15:52;;;;;;;2.13;1.17;;;20.50;40.20;;;;;;5058123;28;20814;-62
2022/04/20 07:18:18;;;;;;;1.48;1.38;;;20.50;40.20;;;;;;5054505;28;20076;-63
2022/04/20 07:20:44;;;;;;;2.15;1.10;;;20.50;40.20;;;;;;5053318;28;20079;-63
2022/04/20 07:23:10;;;;;;;1.60;1.10;;;20.50;40.20;;;;;;5054135;28;20032;-63
2022/04/20 07:25:36;;;;;;;3.80;1.38;;;20.50;40.10;;;;;;5055395;28;20036;-61
2022/04/20 07:28:03;;;;;;;3.92;1.58;;;20.50;39.80;;;;;;5056525;28;20497;-63
2022/04/20 07:30:29;;;;;;;7.72;1.90;;;20.50;40.00;;;;;;5053708;28;20048;-64
2022/04/20 07:32:55;;;;;;;1.20;1.10;;;20.50;39.90;;;;;;5054483;28;20256;-63
2022/04/20 07:35:20;;;;;;;3.85;1.60;;;20.50;39.90;;;;;;5053210;28;20418;-64
2022/04/20 07:37:46;;;;;;;2.33;1.50;;;20.50;39.90;;;;;;5056844;28;20686;-64
2022/04/20 07:40:12;;;;;;;2.70;1.17;;;20.50;39.60;;;;;;5058275;28;20392;-63
2022/04/20 07:42:38;;;;;;;4.53;1.33;;;20.50;39.70;;;;;;5054535;28;20592;-64
2022/04/20 07:45:04;;;;;;;2.63;1.23;;;20.50;39.70;;;;;;5056784;28;20036;-63
2022/04/20 07:47:30;;;;;;;3.22;1.40;;;20.50;39.80;;;;;;5056384;28;20048;-64
2022/04/20 07:52:48;;;;;;;7.13;1.60;;;20.50;39.80;;;;;;5054601;28;20420;-63
2022/04/20 07:55:25;;;;;;;5.60;1.80;;;20.50;39.90;;;;;;5055382;28;20124;-64
2022/04/20 07:57:53;;;;;;;4.53;1.30;;;20.50;40.00;;;;;;5052277;28;20044;-64
2022/04/20 08:00:20;;;;;;;5.10;1.40;;;20.50;40.10;;;;;;5051661;28;20051;-63
2022/04/20 08:02:46;;;;;;;2.58;1.23;;;20.50;40.10;;;;;;5053907;28;20039;-64
2022/04/20 08:05:14;;;;;;;3.50;1.20;;;20.50;40.10;;;;;;5053593;28;20444;-63
2022/04/20 08:07:40;;;;;;;2.53;1.40;;;20.50;40.10;;;;;;5054137;28;20047;-64
2022/04/20 08:10:07;;;;;;;5.65;1.45;;;20.50;40.00;;;;;;5055093;28;20430;-64
2022/04/20 08:12:41;;;;;;;4.85;1.23;;;20.50;40.00;;;;;;5051399;28;20045;-64
2022/04/20 08:15:08;;;;;;;2.83;1.25;;;20.50;40.00;;;;;;5053733;28;20167;-63
2022/04/20 08:17:34;;;;;;;2.05;0.93;;;20.50;39.90;;;;;;5054703;28;20044;-63
2022/04/20 08:20:00;;;;;;;2.65;1.10;;;20.50;39.90;;;;;;5054835;28;20589;-64
2022/04/20 08:22:26;;;;;;;3.90;1.42;;;20.50;39.80;;;;;;5061651;28;20044;-63
2022/04/20 08:24:53;;;;;;;1.98;1.20;;;20.50;39.80;;;;;;5054653;28;20048;-63
2022/04/20 08:27:20;;;;;;;2.45;1.23;;;20.50;39.70;;;;;;5056731;28;20043;-63
2022/04/20 08:29:47;;;;;;;2.40;1.17;;;20.50;39.60;;;;;;5053516;28;20043;-63
2022/04/20 08:32:17;;;;;;;3.35;1.50;;;20.50;39.60;;;;;;5060927;28;20080;-63
2022/04/20 08:34:43;;;;;;;2.08;1.30;;;20.50;39.60;;;;;;5052088;28;20037;-62
2022/04/20 08:37:10;;;;;;;1.15;0.95;;;20.50;39.60;;;;;;5054182;28;20082;-63
2022/04/20 08:39:35;;;;;;;2.92;1.17;;;20.50;39.60;;;;;;5054393;28;20059;-62
2022/04/20 08:42:01;;;;;;;1.42;0.93;;;20.50;39.50;;;;;;5054572;28;20041;-63
2022/04/20 08:44:28;;;;;;;2.08;0.90;;;20.50;39.40;;;;;;5054901;28;20123;-63
2022/04/20 08:47:03;;;;;;;1.40;1.25;;;20.50;39.40;;;;;;5052700;28;20703;-65
2022/04/20 08:49:29;;;;;;;1.23;0.98;;;20.50;39.30;;;;;;5053571;28;20073;-63
2022/04/20 08:54:39;;;;;;;3.38;1.17;;;20.50;39.20;;;;;;5052833;28;20074;-63
2022/04/20 08:57:18;;;;;;;1.90;1.13;;;20.50;39.20;;;;;;5054404;28;20041;-63
2022/04/20 08:59:48;;;;;;;1.75;1.10;;;20.50;39.10;;;;;;5057302;28;20044;-63
2022/04/20 09:02:15;;;;;;;1.60;1.13;;;20.50;39.00;;;;;;5050885;28;20070;-63
2022/04/20 09:04:42;;;;;;;1.77;1.20;;;20.50;39.10;;;;;;5054660;28;20066;-64
2022/04/20 09:07:09;;;;;;;1.58;1.05;;;20.50;39.00;;;;;;5055931;28;20040;-65
2022/04/20 09:09:35;;;;;;;2.13;1.08;;;20.50;39.00;;;;;;5059748;28;20056;-64
2022/04/20 09:12:00;;;;;;;0.88;0.82;;;20.50;39.00;;;;;;5054329;28;20507;-63
2022/04/20 09:14:29;;;;;;;1.00;0.90;;;20.50;39.00;;;;;;5052368;28;20438;-63
2022/04/20 09:16:56;;;;;;;1.42;1.20;;;20.50;38.90;;;;;;5057164;28;20032;-62
2022/04/20 09:19:25;;;;;;;1.13;1.00;;;20.50;38.90;;;;;;5054394;28;20625;-64
2022/04/20 09:21:52;;;;;;;2.55;0.90;;;20.50;38.90;;;;;;5053032;28;20044;-64
2022/04/20 09:24:18;;;;;;;1.52;1.00;;;20.50;38.90;;;;;;5054175;28;20045;-64
2022/04/20 09:26:54;;;;;;;0.85;0.85;;;20.50;38.90;;;;;;5052745;28;20172;-63
2022/04/20 09:29:21;;;;;;;1.25;1.05;;;20.50;38.80;;;;;;5051515;28;20044;-63
2022/04/20 09:31:51;;;;;;;2.92;1.20;;;20.50;38.90;;;;;;5048095;28;20147;-63
2022/04/20 09:34:28;;;;;;;0.95;0.80;;;20.50;38.70;;;;;;5050049;28;20115;-63
2022/04/20 09:36:55;;;;;;;2.40;1.00;;;20.50;38.70;;;;;;5053235;28;20159;-63
2022/04/20 09:39:21;;;;;;;2.38;1.02;;;20.50;38.60;;;;;;5048460;28;20040;-63
2022/04/20 09:41:59;;;;;;;4.22;1.25;;;20.50;38.60;;;;;;5052199;28;20048;-64
2022/04/20 09:44:26;;;;;;;2.30;1.10;;;20.50;38.60;;;;;;5050898;28;20063;-64
2022/04/20 09:49:56;;;;;;;1.20;0.98;;;20.50;38.60;;;;;;5051325;28;20102;-64
2022/04/20 09:52:43;;;;;;;2.30;1.15;;;20.50;38.40;;;;;;5056042;28;20045;-64
2022/04/20 09:55:32;;;;;;;3.70;1.05;;;20.50;38.50;;;;;;5058781;28;20071;-64
2022/04/20 09:58:18;;;;;;;2.85;1.30;;;20.50;38.40;;;;;;5056173;28;20417;-64
2022/04/20 10:00:53;;;;;;;1.40;1.10;;;20.50;38.40;;;;;;5059915;28;20044;-63
2022/04/20 10:03:32;;;;;;;1.30;0.90;;;20.50;38.50;;;;;;5058246;28;20115;-64
2022/04/20 10:05:59;;;;;;;2.03;0.80;;;20.50;38.50;;;;;;5057829;28;20036;-64
2022/04/20 10:08:25;;;;;;;1.45;1.17;;;20.50;38.60;;;;;;5056706;28;20045;-64
2022/04/20 10:10:53;;;;;;;3.60;0.98;;;20.50;38.60;;;;;;5059036;28;20048;-64
2022/04/20 10:13:20;;;;;;;2.60;1.00;;;20.50;38.60;;;;;;5056176;28;20047;-64
2022/04/20 10:16:05;;;;;;;2.47;1.00;;;20.50;38.50;;;;;;5059027;28;20169;-65
2022/04/20 10:18:33;;;;;;;1.38;1.05;;;20.50;38.60;;;;;;5074062;28;20082;-64
2022/04/20 10:21:01;;;;;;;3.05;1.00;;;20.50;38.60;;;;;;5060496;28;20518;-64
2022/04/20 10:23:29;;;;;;;1.67;1.20;;;20.50;38.40;;;;;;5057659;28;20067;-64
2022/04/20 10:25:56;;;;;;;1.33;0.93;;;20.50;38.40;;;;;;5056365;28;20045;-64
2022/04/20 10:28:28;;;;;;;3.40;1.30;;;20.50;38.00;;;;;;5058273;28;20044;-63
2022/04/20 10:31:18;;;;;;;1.17;0.82;;;20.50;37.80;;;;;;5057560;28;20076;-64
2022/04/20 10:33:45;;;;;;;1.73;1.27;;;20.50;38.10;;;;;;5057672;28;20079;-64
2022/04/20 10:36:14;;;;;;;2.50;1.02;;;20.50;38.20;;;;;;5057250;28;20470;-64
2022/04/20 10:38:42;;;;;;;1.52;1.00;;;20.40;38.20;;;;;;5058031;28;20116;-64
2022/04/20 10:41:13;;;;;;;2.05;1.17;;;20.50;38.30;;;;;;5055602;28;20144;-64
2022/04/20 10:43:43;;;;;;;3.45;1.05;;;20.50;38.30;;;;;;5054571;28;20079;-64
2022/04/20 10:46:17;;;;;;;1.80;0.82;;;20.50;38.30;;;;;;5056641;28;20056;-64
2022/04/20 10:48:51;;;;;;;2.15;0.95;;;20.50;38.30;;;;;;5055636;28;20067;-65
2022/04/20 10:51:22;;;;;;;2.08;1.10;;;20.50;38.20;;;;;;5053820;28;20051;-64
2022/04/20 10:53:50;;;;;;;3.17;1.05;;;20.50;38.30;;;;;;5055468;28;20053;-65
2022/04/20 10:56:17;;;;;;;2.47;1.15;;;20.50;38.10;;;;;;5056613;28;20044;-65
2022/04/20 10:59:07;;;;;;;1.58;0.93;;;20.50;38.30;;;;;;5058400;28;20209;-65
2022/04/20 11:01:58;;;;;;;1.25;1.13;;;20.50;38.20;;;;;;5063289;28;20094;-64
2022/04/20 11:04:42;;;;;;;2.00;0.90;;;20.40;38.20;;;;;;5056020;28;20044;-64
2022/04/20 11:07:07;;;;;;;1.52;0.90;;;20.50;38.30;;;;;;5057616;28;20110;-63
2022/04/20 11:09:43;;;;;;;2.05;1.00;;;20.40;38.30;;;;;;5055866;28;20476;-65
2022/04/20 11:21:09;;;;;;;0.80;0.80;;;20.50;38.40;;;;;;5056148;28;20091;-64
2022/04/20 11:23:58;;;;;;;1.33;1.00;;;20.50;38.40;;;;;;5056840;28;20084;-64
2022/04/20 11:26:26;;;;;;;2.28;1.20;;;20.40;38.30;;;;;;5057079;28;20384;-64
2022/04/20 11:28:52;;;;;;;1.40;1.10;;;20.50;38.50;;;;;;5055304;28;20041;-63
2022/04/20 11:31:18;;;;;;;2.83;0.95;;;20.50;38.40;;;;;;5055557;28;20041;-64
2022/04/20 11:33:44;;;;;;;3.42;0.80;;;20.50;38.50;;;;;;5055987;28;20041;-64
2022/04/20 11:36:12;;;;;;;2.97;1.10;;;20.50;38.40;;;;;;5056231;28;20044;-64
2022/04/20 11:38:43;;;;;;;1.58;0.82;;;20.50;38.40;;;;;;5053713;28;20846;-63
2022/04/20 11:41:13;;;;;;;1.67;0.77;;;20.50;38.30;;;;;;5056252;28;20120;-65
2022/04/20 11:43:40;;;;;;;1.95;0.98;;;20.50;38.20;;;;;;5055201;28;20081;-64
2022/04/20 11:46:07;;;;;;;3.75;0.80;;;20.50;38.30;;;;;;5052704;28;20044;-63
2022/04/20 11:48:37;;;;;;;1.85;0.80;;;20.40;38.20;;;;;;5055105;28;20052;-64
2022/04/20 11:51:08;;;;;;;1.55;0.93;;;20.50;38.20;;;;;;5052478;28;20110;-64
2022/04/20 11:53:38;;;;;;;2.92;0.90;;;20.40;38.10;;;;;;5056773;28;20045;-64
2022/04/20 11:56:07;;;;;;;2.25;0.90;;;20.50;38.20;;;;;;5054195;28;20048;-64
2022/04/20 11:58:33;;;;;;;1.10;1.00;;;20.40;38.10;;;;;;5054628;28;20681;-64
2022/04/20 12:01:03;;;;;;;1.50;0.80;;;20.40;38.00;;;;;;5056524;28;20135;-64
2022/04/20 12:03:37;;;;;;;1.40;0.88;;;20.40;38.00;;;;;;5053258;28;20041;-64
2022/04/20 12:06:08;;;;;;;2.78;0.98;;;20.40;38.00;;;;;;5055236;28;20454;-63
2022/04/20 12:08:40;;;;;;;2.58;1.20;;;20.40;38.00;;;;;;5054554;28;20147;-63
2022/04/20 12:11:08;;;;;;;1.48;0.90;;;20.40;38.00;;;;;;5054108;28;20400;-64
2022/04/20 12:13:33;;;;;;;0.70;0.70;;;20.40;38.00;;;;;;5054370;28;20044;-63
2022/04/20 12:16:10;;;;;;;1.50;0.80;;;20.40;38.00;;;;;;5055919;28;20484;-64
2022/04/20 12:18:41;;;;;;;0.82;0.82;;;20.40;38.00;;;;;;5055299;28;20111;-64
2022/04/20 12:21:40;;;;;;;1.63;1.05;;;20.40;38.10;;;;;;5055321;28;20154;-65
2022/04/20 12:24:16;;;;;;;2.38;0.90;;;20.40;38.00;;;;;;5053552;28;20123;-63
2022/04/20 12:26:43;;;;;;;0.80;0.60;;;20.40;38.00;;;;;;5051981;28;20036;-66
2022/04/20 12:29:09;;;;;;;4.15;1.42;;;20.40;38.20;;;;;;5053309;28;20029;-65
2022/04/20 12:31:41;;;;;;;2.97;1.55;;;20.40;37.50;;;;;;5053506;28;20497;-66
2022/04/20 12:34:08;;;;;;;3.05;1.80;;;20.40;35.90;;;;;;5054762;28;20037;-64
2022/04/20 12:36:51;;;;;;;1.85;1.75;;;20.40;35.10;;;;;;5051128;28;20138;-65
2022/04/20 12:39:25;;;;;;;4.05;1.88;;;20.40;33.90;;;;;;5051235;28;20039;-63
2022/04/20 12:41:54;;;;;;;2.83;1.50;;;20.30;33.40;;;;;;5053538;28;20032;-65
2022/04/20 12:44:51;;;;;;;2.47;1.52;;;20.30;33.10;;;;;;5052294;28;20441;-64
2022/04/20 12:47:17;;;;;;;1.70;1.60;;;20.30;32.50;;;;;;5056905;28;20037;-64
2022/04/20 12:49:44;;;;;;;4.75;1.45;;;20.20;33.20;;;;;;5054289;28;20465;-65
2022/04/20 12:52:13;;;;;;;3.70;1.67;;;20.20;33.10;;;;;;5053073;28;20048;-65
2022/04/20 12:54:40;;;;;;;2.10;1.60;;;20.30;33.40;;;;;;5054138;28;20509;-63
2022/04/20 13:03:03;;;;;;;1.38;1.27;;;20.30;33.00;;;;;;5054290;28;20101;-64
2022/04/20 13:05:29;;;;;;;2.15;1.65;;;20.40;33.50;;;;;;5054530;28;20133;-63
2022/04/20 13:07:55;;;;;;;2.38;1.40;;;20.30;32.80;;;;;;5053529;28;20764;-63
2022/04/20 13:10:24;;;;;;;1.50;1.30;;;20.40;33.30;;;;;;5053612;28;20043;-64
2022/04/20 13:12:51;;;;;;;2.90;1.30;;;20.40;33.50;;;;;;5049931;28;20040;-65
2022/04/20 13:15:18;;;;;;;2.45;1.33;;;20.40;33.60;;;;;;5052583;28;20035;-65
2022/04/20 13:17:44;;;;;;;3.35;1.42;;;20.40;33.70;;;;;;5052811;28;20048;-63
2022/04/20 13:20:10;;;;;;;9.02;1.50;;;20.40;34.00;;;;;;5052557;28;20052;-64
2022/04/20 13:22:35;;;;;;;4.47;1.00;;;20.40;34.90;;;;;;5053298;28;20404;-63
2022/04/20 13:27:54;;;;;;;2.60;1.27;;;20.50;34.20;;;;;;5053995;28;20109;-63
2022/04/20 13:30:28;;;;;;;2.30;0.90;;;20.50;34.30;;;;;;5053136;28;20131;-62